Bruni, Texas
Current Conditions -  °F | °C
As of 2:15 AM on Thursday 27 Nov 2014 (Local Time) from KHBV Reporting Station
Clear Clear  
Wind Chill: 49°   Ceiling: Unl
Heat Index: 49°   Visibility: 10mi
Dew Point: 40°   Wind: 0mph
Humidity: 69%   Direction: NA
Pressure: 30.32"   Gusts: NA
Location:  27.43°N, 98.84°W
Report Text: KHBV 270815Z AUTO 00000KT 10SM CLR 10/04 A3032 RMK AO2 T00970043
Loading
Personal Weather Stations






























Interactive Weather Map New forecast layout! Learn more

10-Day Weather Forecast

Advertisements
Track Severe Weather on mobile